Time;durP1;ratioP1;P1;durP2;ratioP2;P2;SDS_P1;SDS_P2;PMS_P1;PMS_P2;Temp;Humidity;BMP_temperature;BMP_pressure;BME280_temperature;BME280_humidity;BME280_pressure;Samples;Min_cycle;Max_cycle;Signal;HPM_P1;HPM_P2
2022/05/21 00:00:06;;;;;;;1.25;0.80;;;18.60;62.90;;;;;;4975278;28;20041;-74
2022/05/21 00:02:31;;;;;;;2.58;0.80;;;18.60;62.90;;;;;;4978527;28;20614;-72
2022/05/21 00:04:57;;;;;;;2.22;0.88;;;18.50;63.00;;;;;;4993059;28;20045;-73
2022/05/21 00:07:23;;;;;;;1.55;0.80;;;18.50;63.10;;;;;;4969322;28;20745;-73
2022/05/21 00:09:48;;;;;;;1.25;0.90;;;18.50;63.20;;;;;;4979969;28;20034;-72
2022/05/21 00:12:14;;;;;;;1.95;0.90;;;18.40;63.00;;;;;;4997303;28;20096;-72
2022/05/21 00:14:39;;;;;;;2.25;1.20;;;18.40;63.00;;;;;;4983120;28;20116;-72
2022/05/21 00:17:05;;;;;;;2.17;1.05;;;18.30;63.00;;;;;;5000724;28;20042;-73
2022/05/21 00:19:30;;;;;;;1.42;1.00;;;18.30;63.10;;;;;;4999421;28;20047;-73
2022/05/21 00:21:56;;;;;;;3.40;1.00;;;18.30;63.00;;;;;;4989571;28;20034;-72
2022/05/21 00:24:21;;;;;;;2.20;0.70;;;18.20;63.20;;;;;;4986212;28;20598;-72
2022/05/21 00:26:47;;;;;;;1.98;0.93;;;18.20;63.30;;;;;;5002684;28;20061;-72
2022/05/21 00:29:13;;;;;;;1.58;0.85;;;18.10;63.30;;;;;;4989985;28;20076;-73
2022/05/21 00:31:39;;;;;;;2.17;0.70;;;18.10;63.30;;;;;;4974244;28;20501;-72
2022/05/21 00:34:04;;;;;;;1.25;0.60;;;18.00;63.30;;;;;;4970998;28;20148;-72
2022/05/21 00:36:30;;;;;;;2.15;0.80;;;17.90;63.30;;;;;;4996315;28;20037;-72
2022/05/21 00:38:55;;;;;;;2.67;0.70;;;17.90;63.40;;;;;;4987597;28;20128;-72
2022/05/21 00:41:21;;;;;;;1.58;0.70;;;17.80;63.30;;;;;;4998009;28;20573;-72
2022/05/21 00:43:52;;;;;;;1.92;0.57;;;17.80;63.40;;;;;;4977883;28;20797;-72
2022/05/21 00:46:48;;;;;;;0.85;0.75;;;17.70;63.40;;;;;;4960711;28;20038;-73
2022/05/21 00:49:24;;;;;;;0.88;0.73;;;17.70;63.60;;;;;;4971841;28;20197;-72
2022/05/21 00:52:00;;;;;;;1.13;1.02;;;17.60;63.60;;;;;;4972604;28;20141;-72
2022/05/21 00:54:30;;;;;;;2.78;0.90;;;17.60;63.60;;;;;;4938108;28;20098;-73
2022/05/21 00:57:17;;;;;;;4.43;0.90;;;17.60;63.60;;;;;;4974646;28;20105;-72
2022/05/21 00:59:48;;;;;;;1.73;0.70;;;17.50;63.40;;;;;;4973648;28;20415;-72
2022/05/21 01:02:19;;;;;;;1.17;0.77;;;17.50;63.50;;;;;;4961301;28;20038;-73
2022/05/21 01:04:45;;;;;;;0.90;0.70;;;17.40;63.70;;;;;;4968726;28;20071;-74
2022/05/21 01:07:11;;;;;;;1.02;0.65;;;17.40;63.80;;;;;;5002331;28;20034;-72
2022/05/21 01:09:38;;;;;;;1.02;0.90;;;17.40;63.90;;;;;;5000093;28;20144;-72
2022/05/21 01:12:04;;;;;;;1.30;0.95;;;17.40;64.00;;;;;;4996500;28;20087;-72
2022/05/21 01:14:30;;;;;;;2.33;0.70;;;17.30;64.00;;;;;;4977841;28;20034;-72
2022/05/21 01:16:55;;;;;;;2.22;0.98;;;17.20;64.10;;;;;;4986092;28;20069;-72
2022/05/21 01:19:21;;;;;;;2.75;1.00;;;17.20;65.10;;;;;;4999490;28;20588;-72
2022/05/21 01:21:47;;;;;;;1.23;0.70;;;17.10;64.40;;;;;;4992608;28;20757;-73
2022/05/21 01:24:12;;;;;;;2.42;1.13;;;17.00;64.40;;;;;;4997858;28;20048;-72
2022/05/21 01:26:38;;;;;;;2.08;1.10;;;17.00;64.30;;;;;;4981184;28;20129;-72
2022/05/21 01:29:07;;;;;;;2.70;1.00;;;16.90;64.10;;;;;;4997703;28;20062;-72
2022/05/21 01:31:32;;;;;;;2.03;1.50;;;16.90;64.10;;;;;;4984611;28;20109;-73
2022/05/21 01:33:59;;;;;;;1.67;1.10;;;16.80;63.90;;;;;;5001479;28;20066;-72
2022/05/21 01:36:24;;;;;;;1.58;1.13;;;16.70;63.70;;;;;;4998398;28;20069;-72
2022/05/21 01:38:50;;;;;;;1.60;1.35;;;16.70;63.90;;;;;;4987810;28;20487;-72
2022/05/21 01:41:15;;;;;;;3.80;1.45;;;16.70;64.00;;;;;;4966395;28;20546;-72
2022/05/21 01:46:25;;;;;;;1.60;1.50;;;16.60;63.80;;;;;;4985745;28;20028;-72
2022/05/21 01:48:51;;;;;;;5.78;1.63;;;16.60;63.80;;;;;;4998118;28;20069;-71
2022/05/21 01:51:17;;;;;;;3.53;1.60;;;16.50;63.70;;;;;;4999910;28;20034;-73
2022/05/21 01:53:42;;;;;;;2.25;1.60;;;16.50;63.80;;;;;;4989799;28;20029;-72
2022/05/21 01:56:08;;;;;;;3.85;1.65;;;16.40;63.70;;;;;;4982906;28;20038;-72
2022/05/21 01:58:34;;;;;;;4.38;1.80;;;16.30;63.70;;;;;;4988230;28;20050;-72
2022/05/21 02:01:00;;;;;;;3.67;1.60;;;16.30;63.70;;;;;;4987373;28;20030;-72
2022/05/21 02:03:25;;;;;;;1.98;1.63;;;16.20;63.60;;;;;;4965531;28;20553;-72
2022/05/21 02:05:51;;;;;;;4.70;1.70;;;16.20;63.60;;;;;;4982975;28;20616;-72
2022/05/21 02:08:17;;;;;;;2.20;1.60;;;16.10;63.70;;;;;;4982189;28;20054;-72
2022/05/21 02:10:42;;;;;;;3.05;1.65;;;16.00;64.00;;;;;;4966052;28;20042;-73
2022/05/21 02:13:16;;;;;;;2.53;1.70;;;16.00;64.00;;;;;;4998366;28;20398;-73
2022/05/21 02:15:41;;;;;;;6.43;1.98;;;16.00;64.00;;;;;;4992758;28;20038;-72
2022/05/21 02:18:07;;;;;;;2.10;1.40;;;16.00;64.00;;;;;;4978683;28;20049;-72
2022/05/21 02:20:32;;;;;;;2.53;1.42;;;15.90;63.90;;;;;;4999219;28;20046;-72
2022/05/21 02:22:58;;;;;;;5.22;1.48;;;15.90;64.00;;;;;;4969577;28;20069;-72
2022/05/21 02:25:28;;;;;;;2.72;1.50;;;15.90;64.10;;;;;;4977217;28;20052;-72
2022/05/21 02:27:54;;;;;;;2.78;1.77;;;15.80;64.00;;;;;;4981003;28;20505;-72
2022/05/21 02:30:20;;;;;;;1.42;1.25;;;15.80;63.90;;;;;;4955931;28;20072;-73
2022/05/21 02:32:46;;;;;;;3.83;1.40;;;15.70;64.20;;;;;;5001260;28;20409;-72
2022/05/21 02:35:12;;;;;;;1.40;1.30;;;15.70;64.30;;;;;;4995567;28;20536;-72
2022/05/21 02:40:24;;;;;;;1.50;1.38;;;15.60;64.50;;;;;;4963719;28;20042;-73
2022/05/21 02:42:49;;;;;;;1.70;1.33;;;15.50;64.40;;;;;;4994592;28;20054;-72
2022/05/21 02:45:20;;;;;;;3.70;1.40;;;15.50;64.70;;;;;;4955980;28;20065;-73
2022/05/21 02:47:46;;;;;;;2.20;1.88;;;15.40;64.80;;;;;;4968318;28;20037;-72
2022/05/21 02:50:13;;;;;;;1.25;1.15;;;15.40;64.80;;;;;;4977173;28;20049;-72
2022/05/21 02:52:38;;;;;;;1.40;1.30;;;15.30;64.80;;;;;;4964590;28;20034;-72
2022/05/21 02:55:05;;;;;;;2.20;1.60;;;15.20;64.90;;;;;;4998643;28;20117;-74
2022/05/21 02:57:31;;;;;;;2.38;1.42;;;15.10;65.00;;;;;;4982078;28;20034;-72
2022/05/21 03:00:00;;;;;;;1.65;1.40;;;15.10;65.10;;;;;;4985909;28;20136;-72
2022/05/21 03:02:25;;;;;;;3.47;1.75;;;15.00;65.20;;;;;;4969475;28;20903;-72
2022/05/21 03:04:51;;;;;;;1.80;1.35;;;15.00;65.40;;;;;;4960400;28;20037;-71
2022/05/21 03:07:16;;;;;;;3.28;1.50;;;15.00;66.30;;;;;;4966920;28;20044;-72
2022/05/21 03:12:26;;;;;;;2.05;1.30;;;14.80;65.60;;;;;;4993344;28;20112;-72
2022/05/21 03:14:51;;;;;;;3.38;1.42;;;14.80;65.80;;;;;;4954719;28;20081;-72
2022/05/21 03:17:17;;;;;;;1.48;1.00;;;14.70;65.90;;;;;;4963272;28;20116;-72
2022/05/21 03:19:42;;;;;;;4.00;1.50;;;14.70;66.00;;;;;;4995347;28;20046;-73
2022/05/21 03:22:08;;;;;;;2.20;1.42;;;14.70;66.10;;;;;;4988450;28;20077;-71
2022/05/21 03:24:34;;;;;;;4.63;1.65;;;14.70;66.10;;;;;;4988576;28;20038;-72
2022/05/21 03:26:59;;;;;;;2.92;1.25;;;14.60;66.30;;;;;;4979448;28;20570;-72
2022/05/21 03:29:25;;;;;;;2.47;1.40;;;14.60;66.30;;;;;;4986459;28;20055;-72
2022/05/21 03:31:51;;;;;;;2.13;1.70;;;14.60;66.40;;;;;;4993729;28;20044;-72
2022/05/21 03:34:17;;;;;;;2.97;1.65;;;14.50;66.50;;;;;;4967710;28;20038;-72
2022/05/21 03:36:42;;;;;;;4.78;1.77;;;14.40;66.60;;;;;;4969687;28;20561;-73
2022/05/21 03:39:08;;;;;;;2.13;1.60;;;14.40;66.70;;;;;;4991546;28;20078;-74
2022/05/21 03:41:36;;;;;;;1.73;1.50;;;14.30;66.70;;;;;;4997407;28;20128;-74
2022/05/21 03:44:01;;;;;;;2.92;1.38;;;14.30;66.90;;;;;;4996329;28;20120;-73
2022/05/21 03:46:27;;;;;;;10.40;1.70;;;14.30;67.10;;;;;;4963296;28;20077;-72
2022/05/21 03:48:52;;;;;;;3.75;1.63;;;14.30;67.30;;;;;;4994303;28;20061;-72
2022/05/21 03:51:18;;;;;;;2.03;1.50;;;14.30;67.40;;;;;;4996174;28;20040;-71
2022/05/21 03:53:43;;;;;;;3.42;1.50;;;14.20;67.40;;;;;;4987419;28;20032;-73
2022/05/21 03:56:09;;;;;;;3.35;1.30;;;14.20;67.40;;;;;;4998729;28;20041;-72
2022/05/21 03:58:34;;;;;;;2.22;1.80;;;14.20;67.50;;;;;;4973751;28;20044;-71
2022/05/21 04:01:00;;;;;;;1.58;1.45;;;14.20;67.70;;;;;;4983894;28;20034;-70
2022/05/21 04:03:25;;;;;;;3.92;1.77;;;14.20;67.90;;;;;;4975252;28;20034;-71
2022/05/21 04:05:57;;;;;;;2.78;1.50;;;14.10;67.80;;;;;;4994957;28;20030;-72
2022/05/21 04:08:23;;;;;;;3.90;1.60;;;14.10;68.10;;;;;;4965932;28;20030;-71
2022/05/21 04:10:49;;;;;;;2.17;1.60;;;14.00;68.00;;;;;;4968082;28;20045;-70
2022/05/21 04:13:15;;;;;;;2.10;1.70;;;14.00;68.20;;;;;;4990331;28;20595;-70
2022/05/21 04:15:40;;;;;;;2.85;1.70;;;14.00;68.40;;;;;;4973481;28;20033;-71
2022/05/21 04:18:06;;;;;;;4.75;1.80;;;14.00;68.50;;;;;;4974615;28;20026;-72
2022/05/21 04:20:32;;;;;;;2.72;1.50;;;13.90;68.70;;;;;;4992812;28;20050;-72
2022/05/21 04:22:57;;;;;;;4.13;1.58;;;14.00;68.80;;;;;;4965856;28;20065;-70
2022/05/21 04:25:23;;;;;;;2.35;1.50;;;13.90;68.80;;;;;;4964716;28;20092;-71
2022/05/21 04:27:48;;;;;;;1.95;1.38;;;14.00;69.00;;;;;;4993468;28;20057;-72
2022/05/21 04:30:17;;;;;;;2.30;1.30;;;14.00;69.00;;;;;;4964938;28;20045;-71
2022/05/21 04:32:45;;;;;;;2.47;1.38;;;14.00;69.20;;;;;;4937950;28;20038;-70
2022/05/21 04:35:11;;;;;;;3.85;1.40;;;14.00;69.20;;;;;;4965136;28;20030;-70
2022/05/21 04:37:37;;;;;;;2.30;1.38;;;14.00;69.10;;;;;;4965541;28;20157;-69
2022/05/21 04:40:05;;;;;;;1.70;1.33;;;14.00;69.20;;;;;;4973990;28;20034;-70
2022/05/21 04:42:30;;;;;;;4.18;1.52;;;14.00;69.20;;;;;;4973020;28;20038;-69
2022/05/21 04:44:56;;;;;;;1.55;1.45;;;14.10;69.30;;;;;;4971175;28;20030;-70
2022/05/21 04:47:21;;;;;;;1.52;1.42;;;14.10;69.30;;;;;;4957905;28;20039;-70
2022/05/21 04:49:47;;;;;;;2.28;1.20;;;14.10;69.40;;;;;;4963482;28;20042;-69
2022/05/21 04:52:12;;;;;;;1.40;1.20;;;14.10;69.40;;;;;;4994224;28;20041;-72
2022/05/21 04:54:38;;;;;;;1.40;1.02;;;14.10;69.40;;;;;;4975783;28;20040;-72
2022/05/21 04:57:04;;;;;;;1.35;1.02;;;14.20;69.50;;;;;;4977141;28;20026;-72
2022/05/21 04:59:30;;;;;;;4.07;1.50;;;14.20;69.40;;;;;;4974486;28;20437;-72
2022/05/21 05:01:56;;;;;;;1.27;1.00;;;14.30;69.50;;;;;;4995571;28;20026;-72
2022/05/21 05:04:22;;;;;;;1.95;1.40;;;14.30;69.40;;;;;;4999766;28;20042;-73
2022/05/21 05:06:47;;;;;;;4.13;1.15;;;14.40;69.50;;;;;;4988629;28;20102;-73
2022/05/21 05:09:13;;;;;;;1.60;1.27;;;14.40;69.40;;;;;;4999558;28;20699;-73
2022/05/21 05:11:38;;;;;;;1.40;1.30;;;14.40;69.30;;;;;;4981983;28;20049;-73
2022/05/21 05:14:04;;;;;;;2.10;1.15;;;14.50;69.30;;;;;;4998132;28;20045;-73
2022/05/21 05:16:29;;;;;;;1.58;1.30;;;14.50;69.20;;;;;;4985155;28;20052;-72
2022/05/21 05:18:55;;;;;;;2.60;1.30;;;14.50;69.00;;;;;;5000492;28;20046;-73
2022/05/21 05:21:20;;;;;;;1.50;1.00;;;14.50;69.00;;;;;;4969766;28;20054;-72
2022/05/21 05:23:46;;;;;;;1.40;1.05;;;14.60;69.10;;;;;;4956833;28;20073;-73
2022/05/21 05:26:11;;;;;;;3.17;1.20;;;14.60;69.00;;;;;;4981612;28;20092;-72
2022/05/21 05:28:37;;;;;;;1.73;1.30;;;14.60;69.00;;;;;;4996773;28;20038;-73
2022/05/21 05:31:02;;;;;;;4.47;1.42;;;14.60;68.90;;;;;;4989832;28;20034;-73
2022/05/21 05:33:30;;;;;;;2.22;1.70;;;14.60;68.90;;;;;;4977118;28;20447;-74
2022/05/21 05:35:55;;;;;;;2.33;1.48;;;14.60;69.10;;;;;;4995601;28;20120;-73
2022/05/21 05:38:21;;;;;;;6.90;2.72;;;14.60;69.00;;;;;;4984276;28;20096;-73
2022/05/21 05:40:47;;;;;;;3.38;1.77;;;14.60;69.00;;;;;;4967587;28;20664;-73
2022/05/21 05:43:15;;;;;;;3.45;2.13;;;14.60;69.80;;;;;;4976433;28;20733;-72
2022/05/21 05:45:40;;;;;;;3.33;2.10;;;14.70;69.10;;;;;;4978887;28;20034;-73
2022/05/21 05:48:06;;;;;;;6.40;3.10;;;14.70;69.00;;;;;;4998791;28;20722;-72
2022/05/21 05:50:32;;;;;;;4.15;2.60;;;14.70;69.00;;;;;;4981784;28;20038;-72
2022/05/21 05:53:01;;;;;;;5.85;2.45;;;14.80;69.00;;;;;;4984837;28;20050;-73
2022/05/21 05:55:27;;;;;;;4.00;2.10;;;14.80;69.00;;;;;;4994366;28;20122;-73
2022/05/21 05:57:52;;;;;;;4.15;2.65;;;14.90;69.80;;;;;;4993766;28;20497;-72
2022/05/21 06:00:19;;;;;;;2.70;2.33;;;15.00;68.80;;;;;;4981524;28;20494;-72
2022/05/21 06:03:01;;;;;;;3.55;2.55;;;15.00;68.80;;;;;;4977533;28;20038;-74
2022/05/21 06:05:28;;;;;;;;;;;15.10;68.70;;;;;;4995884;28;20046;-74
2022/05/21 06:08:01;;;;;;;2.58;1.90;;;15.20;68.50;;;;;;4990176;28;20000;-73
2022/05/21 06:10:29;;;;;;;6.70;1.85;;;15.20;68.40;;;;;;4956570;28;20045;-73
2022/05/21 06:12:55;;;;;;;4.28;2.15;;;15.30;68.20;;;;;;4969833;28;20120;-72
2022/05/21 06:15:21;;;;;;;3.88;1.70;;;15.40;68.00;;;;;;4995106;28;21198;-72
2022/05/21 06:17:46;;;;;;;6.22;2.30;;;15.50;67.80;;;;;;4965702;28;20065;-73
2022/05/21 06:20:14;;;;;;;3.70;2.13;;;15.60;67.80;;;;;;4994768;28;20050;-72
2022/05/21 06:22:41;;;;;;;4.28;1.90;;;15.60;67.60;;;;;;4972032;28;20030;-72
2022/05/21 06:25:07;;;;;;;3.22;1.90;;;15.70;67.40;;;;;;4956455;28;20041;-73
2022/05/21 06:27:33;;;;;;;5.20;1.70;;;15.80;67.20;;;;;;4981589;28;20072;-73
2022/05/21 06:30:02;;;;;;;3.22;1.63;;;15.90;67.00;;;;;;4956383;28;20473;-73
2022/05/21 06:32:27;;;;;;;2.35;1.50;;;16.00;67.00;;;;;;4961538;28;20073;-73
2022/05/21 06:34:53;;;;;;;5.45;1.90;;;16.10;66.80;;;;;;4997021;28;20121;-74
2022/05/21 06:37:19;;;;;;;3.53;1.75;;;16.30;66.50;;;;;;4967893;28;20030;-73
2022/05/21 06:39:44;;;;;;;2.40;1.90;;;16.40;66.30;;;;;;4951112;28;20042;-73
2022/05/21 06:42:11;;;;;;;3.42;2.08;;;16.50;66.00;;;;;;4994822;28;20714;-73
2022/05/21 06:44:37;;;;;;;2.35;1.63;;;16.60;65.80;;;;;;4988727;28;20046;-73
2022/05/21 06:47:02;;;;;;;2.85;1.58;;;16.70;65.50;;;;;;4986854;28;20054;-73
2022/05/21 06:49:28;;;;;;;4.03;1.58;;;16.70;65.20;;;;;;4978637;28;20035;-73
2022/05/21 06:51:54;;;;;;;1.42;1.00;;;16.80;64.90;;;;;;4984505;28;20101;-73
2022/05/21 06:54:20;;;;;;;1.58;1.15;;;16.80;64.70;;;;;;4968600;28;20101;-74
2022/05/21 06:56:46;;;;;;;2.00;1.30;;;17.00;64.60;;;;;;4999346;28;20056;-73
2022/05/21 06:59:11;;;;;;;7.60;1.80;;;17.10;64.40;;;;;;4995805;28;20042;-73
2022/05/21 07:01:37;;;;;;;2.40;1.05;;;17.20;64.20;;;;;;4973232;28;20030;-74
2022/05/21 07:04:03;;;;;;;2.47;1.10;;;17.30;63.90;;;;;;4995083;28;20042;-73
2022/05/21 07:09:12;;;;;;;3.28;1.23;;;17.60;63.50;;;;;;4998299;28;20037;-72
2022/05/21 07:11:39;;;;;;;4.93;1.58;;;17.80;63.10;;;;;;4993213;28;20034;-72
2022/05/21 07:14:05;;;;;;;3.97;1.10;;;18.00;62.60;;;;;;4972813;28;20061;-72
2022/05/21 07:16:30;;;;;;;1.73;0.88;;;18.00;62.00;;;;;;4982124;28;20136;-73
2022/05/21 07:18:56;;;;;;;7.22;0.75;;;18.10;61.60;;;;;;4977793;28;20038;-73
2022/05/21 07:21:21;;;;;;;1.95;0.93;;;18.10;61.40;;;;;;4951046;28;20038;-72
2022/05/21 07:23:48;;;;;;;13.30;1.25;;;18.20;61.20;;;;;;4984155;28;20027;-73
2022/05/21 07:26:14;;;;;;;4.82;0.75;;;18.20;61.10;;;;;;4965240;28;20042;-73
2022/05/21 07:28:40;;;;;;;13.32;1.35;;;18.30;60.80;;;;;;4977941;28;20553;-73
2022/05/21 07:31:05;;;;;;;33.97;1.98;;;18.40;60.60;;;;;;4994669;28;20490;-72
2022/05/21 07:33:31;;;;;;;8.40;1.10;;;18.50;60.40;;;;;;4974646;28;20068;-73
2022/05/21 07:35:56;;;;;;;2.95;1.55;;;18.50;60.20;;;;;;4982062;28;20044;-73
2022/05/21 07:38:22;;;;;;;5.57;0.90;;;18.60;60.00;;;;;;4972263;28;20036;-72
2022/05/21 07:40:48;;;;;;;10.38;0.95;;;18.60;59.70;;;;;;4964268;28;20034;-73
2022/05/21 07:43:22;;;;;;;12.07;1.38;;;18.60;59.70;;;;;;4955436;28;20038;-73
2022/05/21 07:45:47;;;;;;;4.88;0.90;;;18.60;59.60;;;;;;4965578;28;20057;-73
2022/05/21 07:48:14;;;;;;;8.55;1.98;;;18.60;59.60;;;;;;4982163;28;20074;-72
2022/05/21 07:50:41;;;;;;;6.68;1.55;;;18.60;59.40;;;;;;4979398;28;20533;-73
2022/05/21 07:53:11;;;;;;;3.72;0.90;;;18.50;59.40;;;;;;4977087;28;20046;-72
2022/05/21 07:55:37;;;;;;;3.53;0.90;;;18.40;59.30;;;;;;4984777;28;20046;-73
2022/05/21 07:58:02;;;;;;;8.30;0.93;;;18.40;59.40;;;;;;4964042;28;20022;-73
2022/05/21 08:00:28;;;;;;;4.65;1.00;;;18.40;59.30;;;;;;4990124;28;20042;-74
2022/05/21 08:02:53;;;;;;;22.63;1.30;;;18.40;59.30;;;;;;4980033;28;20042;-73
2022/05/21 08:05:19;;;;;;;34.72;2.13;;;18.30;59.20;;;;;;4964891;28;20033;-73
2022/05/21 08:07:49;;;;;;;12.38;1.60;;;18.30;59.20;;;;;;4979081;28;20490;-74
2022/05/21 08:10:15;;;;;;;25.98;2.22;;;18.30;59.20;;;;;;4994196;28;20038;-73
2022/05/21 08:12:40;;;;;;;20.02;1.63;;;18.30;59.20;;;;;;4978100;28;20030;-72
2022/05/21 08:15:06;;;;;;;11.65;1.77;;;18.30;59.20;;;;;;4984701;28;20045;-73
2022/05/21 08:17:32;;;;;;;15.75;1.38;;;18.30;59.20;;;;;;4944491;28;21742;-71
2022/05/21 08:19:57;;;;;;;4.20;1.00;;;18.40;59.20;;;;;;4980020;28;20462;-73
2022/05/21 08:27:52;;;;;;;3.20;1.40;;;18.40;59.20;;;;;;4996071;28;20069;-73
2022/05/21 08:30:17;;;;;;;3.30;1.65;;;18.40;59.10;;;;;;4984846;28;21188;-73
2022/05/21 08:32:43;;;;;;;5.43;1.20;;;18.40;59.00;;;;;;4957308;28;20045;-73
2022/05/21 08:35:08;;;;;;;15.98;1.98;;;18.40;59.10;;;;;;4983278;28;20045;-72
2022/05/21 08:37:35;;;;;;;11.27;1.83;;;18.40;59.10;;;;;;5002777;28;20052;-72
2022/05/21 08:40:01;;;;;;;4.15;1.17;;;18.40;59.10;;;;;;4976152;28;20320;-72
2022/05/21 08:42:39;;;;;;;9.70;1.80;;;18.40;59.10;;;;;;4966280;28;20037;-73
2022/05/21 08:45:15;;;;;;;4.53;0.80;;;18.40;59.00;;;;;;4991902;28;20197;-72
2022/05/21 08:47:41;;;;;;;13.63;1.90;;;18.40;59.10;;;;;;4966176;28;20069;-73
2022/05/21 08:50:13;;;;;;;2.80;1.00;;;18.40;59.10;;;;;;5001892;28;20041;-73
2022/05/21 08:53:16;;;;;;;4.07;1.00;;;18.50;59.10;;;;;;4972939;28;20120;-73
2022/05/21 08:55:46;;;;;;;3.95;1.35;;;18.70;59.20;;;;;;4952849;28;20060;-73
2022/05/21 08:58:25;;;;;;;3.70;0.90;;;19.00;58.90;;;;;;4968832;28;20054;-73
2022/05/21 09:00:50;;;;;;;3.47;1.35;;;19.10;58.50;;;;;;4949565;28;20884;-72
2022/05/21 09:03:20;;;;;;;3.50;0.70;;;19.20;58.40;;;;;;4997271;28;20034;-72
2022/05/21 09:05:57;;;;;;;0.88;0.50;;;19.20;58.30;;;;;;4981149;28;20117;-72
2022/05/21 09:08:29;;;;;;;4.53;1.17;;;19.20;57.90;;;;;;4954855;28;20125;-72
2022/05/21 09:11:03;;;;;;;2.33;0.65;;;19.20;58.00;;;;;;4980428;28;20088;-73
2022/05/21 09:13:35;;;;;;;2.67;0.65;;;19.30;58.10;;;;;;4994544;28;20102;-73
2022/05/21 09:18:45;;;;;;;1.48;0.50;;;19.40;58.00;;;;;;4966539;28;20041;-72
2022/05/21 09:21:21;;;;;;;2.13;0.80;;;19.40;57.90;;;;;;5001216;28;20030;-72
2022/05/21 09:24:02;;;;;;;2.30;0.57;;;19.40;57.80;;;;;;4971759;28;20585;-73
2022/05/21 09:26:48;;;;;;;1.95;0.60;;;19.50;57.70;;;;;;4984759;28;20030;-72
2022/05/21 09:29:28;;;;;;;2.15;0.70;;;19.60;57.50;;;;;;4970661;28;20691;-73
2022/05/21 09:31:57;;;;;;;1.48;0.60;;;19.80;57.40;;;;;;4965123;28;20033;-72
2022/05/21 09:34:26;;;;;;;1.15;0.57;;;19.90;57.20;;;;;;4967653;28;20031;-73
2022/05/21 09:36:52;;;;;;;3.55;1.13;;;20.00;57.00;;;;;;4999976;28;20061;-73
2022/05/21 09:39:35;;;;;;;2.63;0.57;;;20.10;56.90;;;;;;4998153;28;20084;-72
2022/05/21 09:42:08;;;;;;;1.35;0.52;;;20.20;56.50;;;;;;4976261;28;20537;-74
2022/05/21 09:47:25;;;;;;;3.45;0.80;;;20.50;56.40;;;;;;4972283;28;20040;-73
2022/05/21 09:50:02;;;;;;;2.38;0.63;;;20.60;55.90;;;;;;4967622;28;20037;-73
2022/05/21 09:52:29;;;;;;;1.42;0.60;;;20.60;55.70;;;;;;4955101;28;20049;-73
2022/05/21 09:54:54;;;;;;;3.13;0.60;;;20.70;55.70;;;;;;4965891;28;20101;-72
2022/05/21 09:57:33;;;;;;;0.70;0.60;;;20.70;55.50;;;;;;4980184;28;20046;-74
2022/05/21 10:00:23;;;;;;;0.80;0.50;;;20.80;55.30;;;;;;4964658;28;20042;-74
2022/05/21 10:03:06;;;;;;;4.38;0.63;;;20.90;55.10;;;;;;4990277;28;20034;-73
2022/05/21 10:06:00;;;;;;;4.68;0.70;;;21.00;55.30;;;;;;4964704;28;20131;-72
2022/05/21 10:11:29;;;;;;;3.30;0.88;;;21.40;54.40;;;;;;4979420;28;20060;-71
2022/05/21 10:14:05;;;;;;;3.03;0.60;;;21.70;53.90;;;;;;4963906;28;20131;-72
2022/05/21 10:16:38;;;;;;;1.55;0.57;;;21.80;53.40;;;;;;4956376;28;20092;-74
2022/05/21 10:19:10;;;;;;;3.70;1.00;;;21.90;53.40;;;;;;4973632;28;20038;-73
2022/05/21 10:21:52;;;;;;;2.58;0.75;;;21.90;53.30;;;;;;4992956;28;20034;-73
2022/05/21 10:24:23;;;;;;;3.30;0.88;;;21.80;53.20;;;;;;4960563;28;20044;-73
2022/05/21 10:27:03;;;;;;;3.13;0.52;;;21.80;53.00;;;;;;4960584;28;20049;-73
2022/05/21 10:29:44;;;;;;;5.45;0.55;;;21.70;52.60;;;;;;4969451;28;20034;-74
2022/05/21 10:32:13;;;;;;;1.75;0.50;;;21.70;52.50;;;;;;4966365;28;20118;-73
2022/05/21 10:35:10;;;;;;;1.67;0.60;;;21.70;53.00;;;;;;4991605;28;20069;-73
2022/05/21 10:38:10;;;;;;;2.55;0.73;;;21.70;52.50;;;;;;4979763;28;20104;-74
2022/05/21 10:40:50;;;;;;;2.53;0.68;;;21.80;52.40;;;;;;4992216;28;20046;-73
2022/05/21 10:43:49;;;;;;;2.63;0.90;;;22.00;52.50;;;;;;4990308;28;20038;-73
2022/05/21 10:46:44;;;;;;;1.77;0.65;;;22.30;51.90;;;;;;4977662;28;20045;-73
2022/05/21 10:49:49;;;;;;;2.03;0.70;;;22.50;51.30;;;;;;4975533;28;20077;-74
2022/05/21 10:52:22;;;;;;;4.68;0.88;;;22.60;51.00;;;;;;4952432;28;20057;-72
2022/05/21 10:55:09;;;;;;;1.45;0.60;;;22.70;51.10;;;;;;4965607;28;20034;-73
2022/05/21 10:57:52;;;;;;;1.90;0.60;;;22.70;51.10;;;;;;4991156;28;20038;-72
2022/05/21 11:00:31;;;;;;;1.67;0.63;;;22.70;50.90;;;;;;4980366;28;20577;-73
2022/05/21 11:02:57;;;;;;;1.67;0.60;;;22.70;50.90;;;;;;4990734;28;20411;-72
2022/05/21 11:05:32;;;;;;;2.72;0.85;;;22.80;50.90;;;;;;4993590;28;20092;-74
2022/05/21 11:08:17;;;;;;;2.03;0.80;;;22.80;50.70;;;;;;4989875;28;20918;-73
2022/05/21 11:10:58;;;;;;;3.13;0.50;;;22.80;50.60;;;;;;4951360;28;20030;-73
2022/05/21 11:13:37;;;;;;;4.75;0.73;;;22.90;50.40;;;;;;4982670;28;20128;-73
2022/05/21 11:16:18;;;;;;;1.60;0.60;;;23.10;49.90;;;;;;4973894;28;20089;-74
2022/05/21 11:18:51;;;;;;;1.35;0.60;;;23.20;49.00;;;;;;4981560;28;20050;-74
2022/05/21 11:21:19;;;;;;;2.95;0.55;;;23.30;49.30;;;;;;4951596;28;20042;-73
2022/05/21 11:23:57;;;;;;;1.70;0.45;;;23.30;49.00;;;;;;4985020;28;20026;-73
2022/05/21 11:26:42;;;;;;;2.78;0.70;;;23.50;48.60;;;;;;4979604;28;20061;-73
2022/05/21 11:29:12;;;;;;;1.52;0.60;;;23.70;48.30;;;;;;4993905;28;20056;-73
2022/05/21 11:37:23;;;;;;;1.67;0.45;;;24.00;47.80;;;;;;4960940;28;20119;-73
2022/05/21 11:39:50;;;;;;;4.13;0.77;;;24.10;47.60;;;;;;4951744;28;20034;-73
2022/05/21 11:42:18;;;;;;;1.50;0.50;;;24.10;47.50;;;;;;4973913;28;20052;-73
2022/05/21 11:44:58;;;;;;;4.75;0.57;;;24.10;47.20;;;;;;4951327;28;20042;-73
2022/05/21 11:47:27;;;;;;;4.18;0.70;;;24.20;46.80;;;;;;4959666;28;20187;-74
2022/05/21 11:50:03;;;;;;;1.60;0.52;;;24.30;47.00;;;;;;4993059;28;20045;-73
2022/05/21 11:52:32;;;;;;;2.53;0.90;;;24.40;46.90;;;;;;4974947;28;20030;-73
2022/05/21 11:54:57;;;;;;;2.20;0.60;;;24.60;46.70;;;;;;4991979;28;20533;-73
2022/05/21 11:57:35;;;;;;;2.85;0.60;;;24.70;46.50;;;;;;4993806;28;20037;-72
2022/05/21 12:00:26;;;;;;;1.25;1.00;;;24.80;45.60;;;;;;4960525;28;20518;-74
2022/05/21 12:02:53;;;;;;;3.85;1.00;;;24.80;45.60;;;;;;4961243;28;20042;-74
2022/05/21 12:05:41;;;;;;;2.15;0.52;;;24.80;46.10;;;;;;4992346;28;20050;-74
2022/05/21 12:08:22;;;;;;;1.15;0.55;;;24.90;44.90;;;;;;4977152;28;20034;-73
2022/05/21 12:11:15;;;;;;;2.55;1.02;;;25.00;45.10;;;;;;4993497;28;20058;-74
2022/05/21 12:13:58;;;;;;;1.65;0.60;;;25.10;44.80;;;;;;4997737;28;20034;-73
2022/05/21 12:16:24;;;;;;;2.85;0.70;;;25.30;45.40;;;;;;4982815;28;20034;-73
2022/05/21 12:19:02;;;;;;;1.65;0.70;;;25.40;45.30;;;;;;4997164;28;20096;-73
2022/05/21 12:24:03;;;;;;;;;;;25.60;44.90;;;;;;4977506;28;20107;-73
2022/05/21 12:26:33;;;;;;;5.55;0.70;;;25.70;45.00;;;;;;4984411;28;19924;-74
2022/05/21 12:29:14;;;;;;;3.38;0.73;;;25.80;44.60;;;;;;4994176;28;20060;-73
2022/05/21 12:31:53;;;;;;;1.95;0.55;;;25.80;44.30;;;;;;4996516;28;20034;-73
2022/05/21 12:34:22;;;;;;;2.55;0.63;;;26.00;43.80;;;;;;4980179;28;20022;-73
2022/05/21 12:37:08;;;;;;;2.38;0.95;;;26.00;44.30;;;;;;4987299;28;20572;-73
2022/05/21 12:39:55;;;;;;;5.28;0.60;;;26.10;43.10;;;;;;4993976;28;20038;-73
2022/05/21 12:42:39;;;;;;;2.63;0.60;;;26.20;43.70;;;;;;4977521;28;20038;-74
2022/05/21 12:45:05;;;;;;;2.78;0.68;;;26.40;43.50;;;;;;4962294;28;20034;-73
2022/05/21 12:47:35;;;;;;;3.58;0.70;;;26.60;43.60;;;;;;4994808;28;20030;-73
2022/05/21 12:50:03;;;;;;;2.60;0.82;;;26.70;43.20;;;;;;4965692;28;20042;-73
2022/05/21 12:52:40;;;;;;;1.42;0.52;;;26.80;43.10;;;;;;4997366;28;20029;-73
2022/05/21 12:55:28;;;;;;;4.10;0.60;;;26.90;42.50;;;;;;4994706;28;20038;-74
2022/05/21 12:57:56;;;;;;;4.05;0.80;;;27.00;42.20;;;;;;4972985;28;20037;-73
2022/05/21 13:00:23;;;;;;;3.88;0.70;;;27.00;42.60;;;;;;4978045;28;20049;-73
2022/05/21 13:02:52;;;;;;;2.42;0.70;;;27.10;42.50;;;;;;4994385;28;20092;-73
2022/05/21 13:05:18;;;;;;;2.47;0.70;;;27.20;42.20;;;;;;4981033;28;20041;-73
2022/05/21 13:07:44;;;;;;;1.80;0.60;;;27.20;41.80;;;;;;4977701;28;20030;-73
2022/05/21 13:10:26;;;;;;;4.00;0.85;;;27.10;41.60;;;;;;4968607;28;20037;-73
2022/05/21 13:12:54;;;;;;;1.73;0.70;;;26.90;40.60;;;;;;4982185;28;20144;-73
2022/05/21 13:15:31;;;;;;;3.97;1.00;;;26.80;41.50;;;;;;4992902;28;20058;-73
2022/05/21 13:18:02;;;;;;;5.30;0.80;;;26.80;41.20;;;;;;4967285;28;20056;-73
2022/05/21 13:20:39;;;;;;;3.50;0.82;;;26.80;41.40;;;;;;4977604;28;20125;-74
2022/05/21 13:23:19;;;;;;;1.83;0.60;;;26.80;41.60;;;;;;4993154;28;20744;-74
2022/05/21 13:25:52;;;;;;;2.67;0.82;;;26.80;41.20;;;;;;4991560;28;20042;-73
2022/05/21 13:28:19;;;;;;;2.22;0.80;;;26.90;41.10;;;;;;4980418;28;20133;-73
2022/05/21 13:30:47;;;;;;;2.90;0.90;;;26.90;41.20;;;;;;4985583;28;20046;-74
2022/05/21 13:33:26;;;;;;;2.17;0.80;;;26.90;41.10;;;;;;4981717;28;20037;-73